Aérodrome :
LOGIN :

S'inscrire | Disclaimer

   EN    FR    IT 

 










Légende :    VFR   VFR Marginal   IFR   IFR Intensif   IFR Très Intensif
Visi : 
Plafond : 
>= 8 km
>= 3000ft
5 à 8 km
1000 à 3000 ft
1500m à 5 km
500 à 1000 ft
800 à 1500m
200 à 500 ft
< 800m
< 200 ft
Symboles :   Orages  Brouillard  Fortes neiges  Fortes précipitations  Vent > 20 kt
SIGMETs :   Divers  Orages  Givrage  Turbulence  Onde Orograph.  Cendres Volcan.







- Altitude de l'aérodrome : 158 ft
- Code IATA : QAR


EHDL - Deelen Airbase

DERNIER METAR :
  • 192225Z AUTO VRB02KT 9999 OVC190 09/08 Q1020 BLU

METARs EXPIRÉS :
  • 192155Z AUTO 13002KT 9999 OVC180 08/08 Q1020 BLU
  • 192125Z AUTO 14001KT 9999 OVC200 07/07 Q1020 BLU
  • 192055Z AUTO 17001KT 3800 BR NCD 08/08 Q1020 GRN
  • 192025Z AUTO 00000KT 0600 R20/P3000U FG NCD 08/08 Q1020 RED
  • 191955Z AUTO 00000KT 9999 FEW110 09/08 Q1020 BLU
  • 191925Z AUTO 30003KT 280V030 9999 FEW120 11/10 Q1020 BLU

TAF TAF EHDL
Valide du 19 à 17h jusqu'au 20 à 05h UTC


191614Z 1917/2005 VRB03KT 9999 SCT020
PROB40
TEMPO 1917/1920 30005KT SCT020CB
BECMG 1922/1924 25005KT
Pas de NOTAMs connus pour ce terrain.



MET'MAP, la Météo Aéronautique d'un coup d'oeil ! - Copyright ORBIFLY Décembre 2007 - Disclaimer

ORBIFLY MET'MAP TEAM :

Programmation & Développement : Alexandra Zaïnal
Conception & Développement : Baudouin d'Aumeries
Co-Programmation & Développement : Marc-Olivier Méhu
Soutien technique & logistique : Manuel Goepfert

Contact : metmap@orbifly.com




SOURCES & CREDITS :

   NOAA